PARDEE (PAR)

Elevation: 568' · MOKELUMNE R basin · Operator: East Bay Municipal Utility District

Provisional data, subject to change.
Query executed Tuesday at 16:57:16   clock

Select a sensor type for a plot of data.
Note: Reservoir Flows are daily averages.

Earlier

Date RES ELE    STORAGE    RES CHG    OUTFLOW    INFLOW    PPT INC   
 FEET   AF   AF   CFS   CFS   INCHES  
04/04/2016 564.59 191225 -512 1514 1321 0.00
04/05/2016 564.39 190778 -447 1568 1374 0.00
04/06/2016 564.12 190200 -578 1573 1412 0.00
04/07/2016 563.79 189495 -705 1542 1333 0.00
04/08/2016 563.55 188968 -527 1511 1314 0.03
04/09/2016 563.48 188825 -143 1496 1381 1.31
04/10/2016 563.51 188890 65 1534 1546 0.05
04/11/2016 563.32 188480 -410 1535 1488 0.00
04/12/2016 563.09 187970 -510 1530 1383 0.00
04/13/2016 562.93 187630 -340 1536 1342 0.00
04/14/2016 562.96 187694 64 1557 1537 0.24
04/15/2016 562.84 187433 -261 1542 1543 0.00
04/16/2016 562.57 186864 -569 1504 1406 0.00
04/17/2016 562.46 186633 -231 1516 1365 0.00
04/18/2016 562.24 186162 -471 1588 1471 0.00
04/19/2016 561.95 185525 -637 1601 1400 0.00
04/20/2016 561.64 184882 -643 1583 1371 0.00
04/21/2016 561.30 184153 -729 1544 1317 0.00
04/22/2016 561.15 183834 -319 1550 1387 1.03
04/23/2016 560.96 183429 -405 1541 1493 0.00
04/24/2016 560.70 182882 -547 1536 1372 0.00
04/25/2016 560.38 182187 -695 1574 1348 0.00
04/26/2016 559.96 181315 -872 1597 1273 0.00
04/27/2016 559.65 180654 -661 1567 1332 0.00
04/28/2016 559.34 180002 -652 1567 1343 0.00
04/29/2016 559.09 179496 -506 1554 1352 0.04
04/30/2016 559.28 179894 398 1552 1506 0.00
05/01/2016 559.78 180922 1028 1562 1835 0.00
05/02/2016 560.99 183493 2571 1592 2122 0.00
05/03/2016 -- -- -- -- -- --

Later | Latest

Warning! This data is preliminary and subject to revision.

Show PAR Map | Plot PAR Data | 1 Month PAR Data | Real-Time PAR Data | PAR Info